sensor_id;sensor_type;location;lat;lon;timestamp;pressure;altitude;pressure_sealevel;temperature;humidity
71057;BME280;58380;48.312;9.246;2023-02-28T07:50:05;93954.16;;;-4.83;88.44
71057;BME280;58380;48.312;9.246;2023-02-28T07:52:32;93936.94;;;-4.90;88.28
71057;BME280;58380;48.312;9.246;2023-02-28T07:54:58;93891.13;;;-5.21;88.29
71057;BME280;58380;48.312;9.246;2023-02-28T07:57:23;93919.50;;;-5.05;88.70
71057;BME280;58380;48.312;9.246;2023-02-28T07:59:48;93904.06;;;-5.05;88.80
71057;BME280;58380;48.312;9.246;2023-02-28T08:02:15;93936.00;;;-4.81;88.53
71057;BME280;58380;48.312;9.246;2023-02-28T08:04:42;93853.47;;;-5.22;89.27
71057;BME280;58380;48.312;9.246;2023-02-28T08:07:07;93946.16;;;-4.71;88.90
71057;BME280;58380;48.312;9.246;2023-02-28T08:09:33;93957.44;;;-4.64;88.17
71057;BME280;58380;48.312;9.246;2023-02-28T08:11:59;93953.75;;;-4.62;89.06
71057;BME280;58380;48.312;9.246;2023-02-28T08:14:24;93944.41;;;-4.71;88.83
71057;BME280;58380;48.312;9.246;2023-02-28T08:16:50;93969.03;;;-4.60;88.75
71057;BME280;58380;48.312;9.246;2023-02-28T08:19:15;93936.34;;;-4.68;88.52
71057;BME280;58380;48.312;9.246;2023-02-28T08:21:41;93967.78;;;-4.56;88.48
71057;BME280;58380;48.312;9.246;2023-02-28T08:24:06;93942.63;;;-4.62;87.29
71057;BME280;58380;48.312;9.246;2023-02-28T08:26:32;93950.34;;;-4.70;88.34
71057;BME280;58380;48.312;9.246;2023-02-28T08:28:57;93932.78;;;-4.75;87.95
71057;BME280;58380;48.312;9.246;2023-02-28T08:31:23;93936.34;;;-4.76;89.18
71057;BME280;58380;48.312;9.246;2023-02-28T08:33:49;93953.06;;;-4.72;88.56
71057;BME280;58380;48.312;9.246;2023-02-28T08:36:17;93959.34;;;-4.74;88.70
71057;BME280;58380;48.312;9.246;2023-02-28T08:38:42;93935.03;;;-4.80;87.99
71057;BME280;58380;48.312;9.246;2023-02-28T08:41:10;93971.16;;;-4.56;88.30
71057;BME280;58380;48.312;9.246;2023-02-28T08:43:38;93969.84;;;-4.60;88.03
71057;BME280;58380;48.312;9.246;2023-02-28T08:46:04;93955.84;;;-4.65;89.32
71057;BME280;58380;48.312;9.246;2023-02-28T08:48:33;93968.44;;;-4.54;88.36
71057;BME280;58380;48.312;9.246;2023-02-28T08:51:03;93965.53;;;-4.59;88.91
71057;BME280;58380;48.312;9.246;2023-02-28T08:53:31;93973.25;;;-4.59;88.17
71057;BME280;58380;48.312;9.246;2023-02-28T08:55:58;93955.84;;;-4.65;88.96
71057;BME280;58380;48.312;9.246;2023-02-28T08:58:29;93981.13;;;-4.52;88.12
71057;BME280;58380;48.312;9.246;2023-02-28T09:00:54;93959.22;;;-4.65;88.42
71057;BME280;58380;48.312;9.246;2023-02-28T09:03:21;93985.34;;;-4.43;89.07
71057;BME280;58380;48.312;9.246;2023-02-28T09:05:58;93947.81;;;-4.54;88.64
71057;BME280;58380;48.312;9.246;2023-02-28T09:08:30;93993.91;;;-4.35;87.81
71057;BME280;58380;48.312;9.246;2023-02-28T09:10:56;93987.13;;;-4.44;87.52
71057;BME280;58380;48.312;9.246;2023-02-28T09:13:26;93985.50;;;-4.53;87.07
71057;BME280;58380;48.312;9.246;2023-02-28T09:15:56;93953.91;;;-4.71;87.33
71057;BME280;58380;48.312;9.246;2023-02-28T09:18:22;93997.44;;;-4.36;87.54
71057;BME280;58380;48.312;9.246;2023-02-28T09:20:48;93994.09;;;-4.28;87.41
71057;BME280;58380;48.312;9.246;2023-02-28T09:23:13;93998.13;;;-4.25;87.38
71057;BME280;58380;48.312;9.246;2023-02-28T09:25:48;93996.66;;;-4.28;87.18
71057;BME280;58380;48.312;9.246;2023-02-28T09:28:19;93994.88;;;-4.27;86.83
71057;BME280;58380;48.312;9.246;2023-02-28T09:30:47;93973.13;;;-4.33;86.81
71057;BME280;58380;48.312;9.246;2023-02-28T09:33:15;93992.03;;;-4.16;87.83
71057;BME280;58380;48.312;9.246;2023-02-28T09:35:41;93991.84;;;-4.23;86.66
71057;BME280;58380;48.312;9.246;2023-02-28T09:38:07;94005.09;;;-4.01;85.87
71057;BME280;58380;48.312;9.246;2023-02-28T09:40:47;94019.13;;;-3.96;86.76
71057;BME280;58380;48.312;9.246;2023-02-28T09:43:15;93997.19;;;-4.16;86.62
71057;BME280;58380;48.312;9.246;2023-02-28T09:45:55;94003.25;;;-4.34;86.63
71057;BME280;58380;48.312;9.246;2023-02-28T09:48:31;94016.00;;;-4.24;86.66
71057;BME280;58380;48.312;9.246;2023-02-28T09:51:12;94009.22;;;-4.33;87.19
71057;BME280;58380;48.312;9.246;2023-02-28T09:53:48;93991.44;;;-4.61;86.90
71057;BME280;58380;48.312;9.246;2023-02-28T09:56:19;94017.75;;;-4.32;88.41
71057;BME280;58380;48.312;9.246;2023-02-28T10:04:56;94003.66;;;-4.04;85.15
71057;BME280;58380;48.312;9.246;2023-02-28T10:10:46;94019.44;;;-3.58;84.88
71057;BME280;58380;48.312;9.246;2023-02-28T10:13:34;94007.22;;;-3.64;86.05
71057;BME280;58380;48.312;9.246;2023-02-28T10:16:08;94013.34;;;-3.81;85.87
71057;BME280;58380;48.312;9.246;2023-02-28T10:18:46;94021.22;;;-3.75;84.29
71057;BME280;58380;48.312;9.246;2023-02-28T10:21:28;94014.59;;;-3.77;84.59
71057;BME280;58380;48.312;9.246;2023-02-28T10:24:20;94004.78;;;-3.98;84.35
71057;BME280;58380;48.312;9.246;2023-02-28T10:26:59;94029.94;;;-3.76;85.02
71057;BME280;58380;48.312;9.246;2023-02-28T10:29:57;94027.50;;;-3.77;84.88
71057;BME280;58380;48.312;9.246;2023-02-28T10:32:28;93992.81;;;-4.07;84.58
71057;BME280;58380;48.312;9.246;2023-02-28T10:35:01;94026.53;;;-3.84;85.37
71057;BME280;58380;48.312;9.246;2023-02-28T10:37:37;94026.53;;;-3.84;85.93
71057;BME280;58380;48.312;9.246;2023-02-28T10:40:07;94010.72;;;-3.98;85.72
71057;BME280;58380;48.312;9.246;2023-02-28T10:42:57;94041.53;;;-3.80;84.67
71057;BME280;58380;48.312;9.246;2023-02-28T10:45:28;94028.16;;;-3.83;85.37
71057;BME280;58380;48.312;9.246;2023-02-28T10:51:08;94038.31;;;-3.65;84.80
71057;BME280;58380;48.312;9.246;2023-02-28T10:53:47;94048.00;;;-3.76;84.37
71057;BME280;58380;48.312;9.246;2023-02-28T10:56:21;94008.94;;;-3.97;84.74
71057;BME280;58380;48.312;9.246;2023-02-28T11:01:45;94049.28;;;-3.63;85.67
71057;BME280;58380;48.312;9.246;2023-02-28T11:04:18;94052.03;;;-3.57;83.82
71057;BME280;58380;48.312;9.246;2023-02-28T11:07:21;94024.78;;;-3.51;82.51
71057;BME280;58380;48.312;9.246;2023-02-28T11:09:59;94034.09;;;-3.17;82.95
71057;BME280;58380;48.312;9.246;2023-02-28T11:12:37;94049.09;;;-2.96;82.56
71057;BME280;58380;48.312;9.246;2023-02-28T11:15:28;94047.13;;;-2.86;81.30
71057;BME280;58380;48.312;9.246;2023-02-28T11:18:02;94039.41;;;-2.94;79.95
71057;BME280;58380;48.312;9.246;2023-02-28T11:20:50;94031.81;;;-3.12;81.19
71057;BME280;58380;48.312;9.246;2023-02-28T11:23:19;94040.22;;;-3.02;83.17
71057;BME280;58380;48.312;9.246;2023-02-28T11:25:53;94036.81;;;-2.94;81.13
71057;BME280;58380;48.312;9.246;2023-02-28T11:28:41;94047.63;;;-3.07;80.96
71057;BME280;58380;48.312;9.246;2023-02-28T11:33:49;94037.63;;;-3.10;81.15
71057;BME280;58380;48.312;9.246;2023-02-28T11:36:24;94028.75;;;-2.99;80.99
71057;BME280;58380;48.312;9.246;2023-02-28T11:39:04;94028.53;;;-2.90;81.75
71057;BME280;58380;48.312;9.246;2023-02-28T11:41:48;94048.31;;;-2.57;80.30
71057;BME280;58380;48.312;9.246;2023-02-28T11:45:07;94021.53;;;-2.56;79.47
71057;BME280;58380;48.312;9.246;2023-02-28T11:47:38;94044.34;;;-2.29;79.62
71057;BME280;58380;48.312;9.246;2023-02-28T11:53:01;94002.53;;;-2.09;78.03
71057;BME280;58380;48.312;9.246;2023-02-28T11:55:38;94025.97;;;-1.80;77.81
71057;BME280;58380;48.312;9.246;2023-02-28T12:09:43;94018.25;;;-1.42;76.67
71057;BME280;58380;48.312;9.246;2023-02-28T12:13:05;94033.13;;;-1.06;76.80
71057;BME280;58380;48.312;9.246;2023-02-28T12:15:49;94030.72;;;-0.93;74.27
71057;BME280;58380;48.312;9.246;2023-02-28T12:18:59;94021.63;;;-0.74;74.90
71057;BME280;58380;48.312;9.246;2023-02-28T12:21:59;94030.66;;;-0.84;75.03
71057;BME280;58380;48.312;9.246;2023-02-28T12:27:29;94020.91;;;-0.82;74.10
71057;BME280;58380;48.312;9.246;2023-02-28T12:30:03;94006.25;;;-0.90;74.92
71057;BME280;58380;48.312;9.246;2023-02-28T12:32:44;93995.00;;;-1.12;72.85
71057;BME280;58380;48.312;9.246;2023-02-28T12:35:19;94029.19;;;-1.17;74.79
71057;BME280;58380;48.312;9.246;2023-02-28T12:37:55;93995.25;;;-1.60;74.08
71057;BME280;58380;48.312;9.246;2023-02-28T12:40:39;93998.28;;;-1.56;76.15
71057;BME280;58380;48.312;9.246;2023-02-28T12:43:10;94014.16;;;-1.59;75.41
71057;BME280;58380;48.312;9.246;2023-02-28T12:45:52;94007.59;;;-1.93;76.49
71057;BME280;58380;48.312;9.246;2023-02-28T12:48:29;94009.66;;;-1.65;77.74
71057;BME280;58380;48.312;9.246;2023-02-28T12:51:03;93982.25;;;-1.75;76.57
71057;BME280;58380;48.312;9.246;2023-02-28T12:56:44;94005.00;;;-1.47;77.28
71057;BME280;58380;48.312;9.246;2023-02-28T12:59:37;94006.34;;;-1.51;74.79
71057;BME280;58380;48.312;9.246;2023-02-28T13:02:28;94008.09;;;-1.28;76.92
71057;BME280;58380;48.312;9.246;2023-02-28T13:08:06;94010.53;;;-1.12;76.70
71057;BME280;58380;48.312;9.246;2023-02-28T13:10:49;93980.16;;;-1.03;73.95
71057;BME280;58380;48.312;9.246;2023-02-28T13:13:21;93993.91;;;-1.03;74.59
71057;BME280;58380;48.312;9.246;2023-02-28T13:16:03;94003.66;;;-0.90;74.09
71057;BME280;58380;48.312;9.246;2023-02-28T13:18:39;94007.88;;;-0.89;74.88
71057;BME280;58380;48.312;9.246;2023-02-28T13:21:26;94010.34;;;-0.96;74.17
71057;BME280;58380;48.312;9.246;2023-02-28T13:32:27;93993.97;;;-1.26;76.19
71057;BME280;58380;48.312;9.246;2023-02-28T13:39:56;93997.03;;;-0.93;74.37
71057;BME280;58380;48.312;9.246;2023-02-28T13:42:49;93999.72;;;-0.86;74.73
71057;BME280;58380;48.312;9.246;2023-02-28T13:47:58;94000.91;;;-0.89;75.42
71057;BME280;58380;48.312;9.246;2023-02-28T14:01:53;93993.38;;;-0.83;74.28
71057;BME280;58380;48.312;9.246;2023-02-28T14:07:38;93988.31;;;-0.77;74.33
71057;BME280;58380;48.312;9.246;2023-02-28T14:10:22;93882.09;;;-1.21;75.21
71057;BME280;58380;48.312;9.246;2023-02-28T14:12:57;94028.50;;;-0.36;73.95
71057;BME280;58380;48.312;9.246;2023-02-28T14:18:27;93947.22;;;-0.44;73.80
71057;BME280;58380;48.312;9.246;2023-02-28T14:21:24;94008.38;;;0.02;74.35
71057;BME280;58380;48.312;9.246;2023-02-28T14:30:12;93987.66;;;-0.13;74.08
71057;BME280;58380;48.312;9.246;2023-02-28T14:33:13;94005.81;;;0.24;73.46
71057;BME280;58380;48.312;9.246;2023-02-28T14:36:01;94002.38;;;0.38;72.43
71057;BME280;58380;48.312;9.246;2023-02-28T14:38:36;94011.13;;;0.58;71.36
71057;BME280;58380;48.312;9.246;2023-02-28T14:41:31;94008.34;;;0.38;69.55
71057;BME280;58380;48.312;9.246;2023-02-28T14:44:01;94022.31;;;0.37;70.84
71057;BME280;58380;48.312;9.246;2023-02-28T14:46:37;94024.00;;;0.24;72.27
71057;BME280;58380;48.312;9.246;2023-02-28T14:49:04;94031.03;;;0.30;71.08
71057;BME280;58380;48.312;9.246;2023-02-28T14:51:32;94011.94;;;0.37;69.98
71057;BME280;58380;48.312;9.246;2023-02-28T14:54:00;94012.50;;;0.33;71.45
71057;BME280;58380;48.312;9.246;2023-02-28T14:56:34;94005.69;;;0.32;71.99
71057;BME280;58380;48.312;9.246;2023-02-28T14:59:03;94004.66;;;0.26;71.33
71057;BME280;58380;48.312;9.246;2023-02-28T15:01:29;93994.84;;;0.07;72.43
71057;BME280;58380;48.312;9.246;2023-02-28T15:04:04;93980.59;;;-0.04;72.34
71057;BME280;58380;48.312;9.246;2023-02-28T15:06:32;93981.75;;;-0.07;72.19
71057;BME280;58380;48.312;9.246;2023-02-28T15:09:15;94011.06;;;0.09;71.72
71057;BME280;58380;48.312;9.246;2023-02-28T15:11:46;93992.31;;;-0.08;72.04
71057;BME280;58380;48.312;9.246;2023-02-28T15:14:20;93998.91;;;-0.06;72.71
71057;BME280;58380;48.312;9.246;2023-02-28T15:16:54;94002.53;;;0.15;72.55
71057;BME280;58380;48.312;9.246;2023-02-28T15:19:34;94018.66;;;0.32;72.32
71057;BME280;58380;48.312;9.246;2023-02-28T15:22:13;94027.03;;;0.49;71.81
71057;BME280;58380;48.312;9.246;2023-02-28T15:24:47;94027.50;;;0.37;70.37
71057;BME280;58380;48.312;9.246;2023-02-28T15:27:22;94027.88;;;0.34;70.97
71057;BME280;58380;48.312;9.246;2023-02-28T15:29:57;94031.84;;;0.30;70.66
71057;BME280;58380;48.312;9.246;2023-02-28T15:32:36;94045.47;;;0.17;70.60
71057;BME280;58380;48.312;9.246;2023-02-28T15:40:40;94047.97;;;-0.11;71.35
71057;BME280;58380;48.312;9.246;2023-02-28T15:43:22;94048.97;;;-0.12;72.54
71057;BME280;58380;48.312;9.246;2023-02-28T15:46:05;94033.59;;;-0.28;72.74
71057;BME280;58380;48.312;9.246;2023-02-28T15:48:53;94051.28;;;-0.17;71.48
71057;BME280;58380;48.312;9.246;2023-02-28T15:51:29;94046.44;;;-0.05;70.69
71057;BME280;58380;48.312;9.246;2023-02-28T15:54:01;94025.53;;;-0.18;70.91
71057;BME280;58380;48.312;9.246;2023-02-28T15:56:32;94033.56;;;-0.13;69.49
71057;BME280;58380;48.312;9.246;2023-02-28T15:59:07;94045.00;;;-0.08;71.21
71057;BME280;58380;48.312;9.246;2023-02-28T16:01:40;94033.59;;;-0.28;71.64
71057;BME280;58380;48.312;9.246;2023-02-28T16:04:18;94047.63;;;-0.23;72.89
71057;BME280;58380;48.312;9.246;2023-02-28T16:06:46;94038.09;;;-0.52;72.39
71057;BME280;58380;48.312;9.246;2023-02-28T16:09:26;94001.91;;;-0.75;71.89
71057;BME280;58380;48.312;9.246;2023-02-28T16:11:53;94039.78;;;-0.44;72.32
71057;BME280;58380;48.312;9.246;2023-02-28T16:14:24;94047.94;;;-0.47;71.98
71057;BME280;58380;48.312;9.246;2023-02-28T16:16:54;93997.78;;;-0.84;72.31
71057;BME280;58380;48.312;9.246;2023-02-28T16:19:22;94043.28;;;-0.52;72.15
71057;BME280;58380;48.312;9.246;2023-02-28T16:21:48;94049.34;;;-0.59;73.06
71057;BME280;58380;48.312;9.246;2023-02-28T16:24:14;94046.31;;;-0.63;71.96
71057;BME280;58380;48.312;9.246;2023-02-28T16:26:40;93947.78;;;-1.22;72.17
71057;BME280;58380;48.312;9.246;2023-02-28T16:29:14;94023.97;;;-0.79;71.88
71057;BME280;58380;48.312;9.246;2023-02-28T16:31:54;94059.53;;;-0.58;72.74
71057;BME280;58380;48.312;9.246;2023-02-28T16:34:20;94043.44;;;-0.68;73.07
71057;BME280;58380;48.312;9.246;2023-02-28T16:36:49;94049.00;;;-0.71;73.01
71057;BME280;58380;48.312;9.246;2023-02-28T16:39:15;94033.00;;;-0.90;74.62
71057;BME280;58380;48.312;9.246;2023-02-28T16:41:45;94055.22;;;-0.80;73.62
71057;BME280;58380;48.312;9.246;2023-02-28T16:44:27;94054.16;;;-0.86;73.17
71057;BME280;58380;48.312;9.246;2023-02-28T16:46:55;94057.47;;;-0.92;73.85
71057;BME280;58380;48.312;9.246;2023-02-28T16:49:20;94047.34;;;-1.02;74.24
71057;BME280;58380;48.312;9.246;2023-02-28T16:51:46;94049.19;;;-1.11;75.34
71057;BME280;58380;48.312;9.246;2023-02-28T16:54:12;94059.03;;;-1.06;74.70
71057;BME280;58380;48.312;9.246;2023-02-28T16:56:42;94052.53;;;-1.02;74.02
71057;BME280;58380;48.312;9.246;2023-02-28T16:59:10;94036.16;;;-1.17;73.70
71057;BME280;58380;48.312;9.246;2023-02-28T17:01:36;94039.56;;;-1.17;73.13
71057;BME280;58380;48.312;9.246;2023-02-28T17:04:02;94055.91;;;-1.16;73.96
71057;BME280;58380;48.312;9.246;2023-02-28T17:06:29;94041.50;;;-1.19;73.85
71057;BME280;58380;48.312;9.246;2023-02-28T17:08:56;94060.44;;;-1.18;74.85
71057;BME280;58380;48.312;9.246;2023-02-28T17:11:23;94070.88;;;-1.26;75.05
71057;BME280;58380;48.312;9.246;2023-02-28T17:13:50;94027.31;;;-1.46;74.99
71057;BME280;58380;48.312;9.246;2023-02-28T17:16:30;94060.75;;;-1.36;75.28
71057;BME280;58380;48.312;9.246;2023-02-28T17:19:01;94077.72;;;-1.34;75.31
71057;BME280;58380;48.312;9.246;2023-02-28T17:21:29;94068.59;;;-1.44;75.59
71057;BME280;58380;48.312;9.246;2023-02-28T17:23:55;94080.03;;;-1.39;75.38
71057;BME280;58380;48.312;9.246;2023-02-28T17:26:21;94081.97;;;-1.41;75.04
71057;BME280;58380;48.312;9.246;2023-02-28T17:28:50;94059.91;;;-1.52;75.27
71057;BME280;58380;48.312;9.246;2023-02-28T17:31:17;94064.22;;;-1.44;74.79
71057;BME280;58380;48.312;9.246;2023-02-28T17:33:44;94063.28;;;-1.51;74.61
71057;BME280;58380;48.312;9.246;2023-02-28T17:36:14;94080.25;;;-1.48;75.25
71057;BME280;58380;48.312;9.246;2023-02-28T17:38:41;94063.16;;;-1.58;75.37
71057;BME280;58380;48.312;9.246;2023-02-28T17:41:11;94080.13;;;-1.55;75.43
71057;BME280;58380;48.312;9.246;2023-02-28T17:43:37;94090.47;;;-1.55;76.10
71057;BME280;58380;48.312;9.246;2023-02-28T17:46:03;94044.09;;;-1.88;76.23
71057;BME280;58380;48.312;9.246;2023-02-28T17:48:30;94082.34;;;-1.75;75.96
71057;BME280;58380;48.312;9.246;2023-02-28T17:50:56;94101.88;;;-1.64;76.69
71057;BME280;58380;48.312;9.246;2023-02-28T17:53:21;94098.03;;;-1.68;76.79
71057;BME280;58380;48.312;9.246;2023-02-28T17:55:48;94064.34;;;-1.91;76.62
71057;BME280;58380;48.312;9.246;2023-02-28T17:58:14;94095.00;;;-1.80;76.85
71057;BME280;58380;48.312;9.246;2023-02-28T18:00:40;94096.78;;;-1.81;76.61
71057;BME280;58380;48.312;9.246;2023-02-28T18:03:05;94085.13;;;-1.77;77.01
71057;BME280;58380;48.312;9.246;2023-02-28T18:05:31;94087.81;;;-1.93;76.66
71057;BME280;58380;48.312;9.246;2023-02-28T18:07:57;94084.25;;;-1.92;77.19
71057;BME280;58380;48.312;9.246;2023-02-28T18:10:23;94087.66;;;-1.91;77.30
71057;BME280;58380;48.312;9.246;2023-02-28T18:12:51;94103.28;;;-1.85;77.61
71057;BME280;58380;48.312;9.246;2023-02-28T18:15:18;94099.47;;;-1.97;77.82
71057;BME280;58380;48.312;9.246;2023-02-28T18:17:46;94101.22;;;-1.89;77.31
71057;BME280;58380;48.312;9.246;2023-02-28T18:20:12;94097.84;;;-1.98;77.59
71057;BME280;58380;48.312;9.246;2023-02-28T18:22:39;94104.50;;;-2.04;77.74
71057;BME280;58380;48.312;9.246;2023-02-28T18:25:08;94102.44;;;-2.08;78.13
71057;BME280;58380;48.312;9.246;2023-02-28T18:27:38;94085.50;;;-2.19;78.19
71057;BME280;58380;48.312;9.246;2023-02-28T18:30:04;94064.28;;;-2.46;79.52
71057;BME280;58380;48.312;9.246;2023-02-28T18:32:30;94103.47;;;-2.26;79.75
71057;BME280;58380;48.312;9.246;2023-02-28T18:34:56;94082.22;;;-2.44;79.70
71057;BME280;58380;48.312;9.246;2023-02-28T18:37:21;94103.69;;;-2.44;79.98
71057;BME280;58380;48.312;9.246;2023-02-28T18:39:47;94102.91;;;-2.52;80.14
71057;BME280;58380;48.312;9.246;2023-02-28T18:42:12;94110.81;;;-2.46;80.04
71057;BME280;58380;48.312;9.246;2023-02-28T18:44:38;94074.84;;;-2.64;80.05
71057;BME280;58380;48.312;9.246;2023-02-28T18:47:03;94087.56;;;-2.54;79.95
71057;BME280;58380;48.312;9.246;2023-02-28T18:49:32;94062.06;;;-2.65;79.67
71057;BME280;58380;48.312;9.246;2023-02-28T18:51:59;94079.66;;;-2.61;79.72
71057;BME280;58380;48.312;9.246;2023-02-28T18:54:26;94085.34;;;-2.57;79.80
71057;BME280;58380;48.312;9.246;2023-02-28T18:56:51;94085.00;;;-2.54;79.92
71057;BME280;58380;48.312;9.246;2023-02-28T18:59:17;94085.28;;;-2.49;80.08
71057;BME280;58380;48.312;9.246;2023-02-28T19:01:43;94079.34;;;-2.66;80.24
71057;BME280;58380;48.312;9.246;2023-02-28T19:04:11;94054.69;;;-2.85;80.75
71057;BME280;58380;48.312;9.246;2023-02-28T19:06:38;94084.88;;;-2.69;80.86
71057;BME280;58380;48.312;9.246;2023-02-28T19:09:04;94068.13;;;-2.89;80.87
71057;BME280;58380;48.312;9.246;2023-02-28T19:11:30;94095.22;;;-2.77;81.51
71057;BME280;58380;48.312;9.246;2023-02-28T19:13:57;94094.56;;;-2.87;81.91
71057;BME280;58380;48.312;9.246;2023-02-28T19:16:23;94067.66;;;-3.09;82.01
71057;BME280;58380;48.312;9.246;2023-02-28T19:18:49;94101.22;;;-2.93;82.12
71057;BME280;58380;48.312;9.246;2023-02-28T19:21:16;94081.84;;;-3.05;82.17
71057;BME280;58380;48.312;9.246;2023-02-28T19:23:43;94088.47;;;-3.03;82.36
71057;BME280;58380;48.312;9.246;2023-02-28T19:26:20;94097.53;;;-3.07;82.50
71057;BME280;58380;48.312;9.246;2023-02-28T19:28:48;94088.50;;;-3.19;82.82
71057;BME280;58380;48.312;9.246;2023-02-28T19:31:19;94089.63;;;-3.21;83.13
71057;BME280;58380;48.312;9.246;2023-02-28T19:33:50;94089.13;;;-3.33;83.40
71057;BME280;58380;48.312;9.246;2023-02-28T19:36:17;94087.03;;;-3.46;84.04
71057;BME280;58380;48.312;9.246;2023-02-28T19:38:42;94067.50;;;-3.65;84.27
71057;BME280;58380;48.312;9.246;2023-02-28T19:41:12;94060.41;;;-3.71;84.46
71057;BME280;58380;48.312;9.246;2023-02-28T19:43:39;94070.72;;;-3.63;84.29
71057;BME280;58380;48.312;9.246;2023-02-28T19:46:06;94070.56;;;-3.70;84.40
71057;BME280;58380;48.312;9.246;2023-02-28T19:48:33;94036.03;;;-3.93;84.94
71057;BME280;58380;48.312;9.246;2023-02-28T19:51:01;94074.75;;;-3.77;85.10
71057;BME280;58380;48.312;9.246;2023-02-28T19:53:29;94079.28;;;-3.62;84.95
71057;BME280;58380;48.312;9.246;2023-02-28T19:55:56;94056.19;;;-3.80;85.02
71057;BME280;58380;48.312;9.246;2023-02-28T19:58:22;94008.56;;;-4.27;85.54
71057;BME280;58380;48.312;9.246;2023-02-28T20:00:48;94087.94;;;-3.80;85.87
71057;BME280;58380;48.312;9.246;2023-02-28T20:03:14;94056.16;;;-4.05;86.11
71057;BME280;58380;48.312;9.246;2023-02-28T20:05:42;94025.81;;;-4.36;86.45
71057;BME280;58380;48.312;9.246;2023-02-28T20:08:08;94073.06;;;-4.02;86.49
71057;BME280;58380;48.312;9.246;2023-02-28T20:10:33;94081.97;;;-3.97;86.38
71057;BME280;58380;48.312;9.246;2023-02-28T20:12:59;94081.28;;;-4.07;86.86
71057;BME280;58380;48.312;9.246;2023-02-28T20:15:26;94088.22;;;-4.07;86.84
71057;BME280;58380;48.312;9.246;2023-02-28T20:17:52;94079.31;;;-4.21;87.34
71057;BME280;58380;48.312;9.246;2023-02-28T20:20:18;94063.00;;;-4.30;87.54
71057;BME280;58380;48.312;9.246;2023-02-28T20:22:43;94085.44;;;-4.22;87.68
71057;BME280;58380;48.312;9.246;2023-02-28T20:25:09;94086.25;;;-4.22;87.64
71057;BME280;58380;48.312;9.246;2023-02-28T20:27:35;94086.41;;;-4.23;87.84
71057;BME280;58380;48.312;9.246;2023-02-28T20:30:01;94085.44;;;-4.22;87.64
71057;BME280;58380;48.312;9.246;2023-02-28T20:32:27;94088.00;;;-4.22;87.86
71057;BME280;58380;48.312;9.246;2023-02-28T20:34:53;94086.88;;;-4.28;87.86
71057;BME280;58380;48.312;9.246;2023-02-28T20:37:18;94058.88;;;-4.57;88.09
71057;BME280;58380;48.312;9.246;2023-02-28T20:39:44;94085.84;;;-4.43;88.17
71057;BME280;58380;48.312;9.246;2023-02-28T20:42:09;94078.22;;;-4.53;88.55
71057;BME280;58380;48.312;9.246;2023-02-28T20:44:35;94038.19;;;-4.82;88.89
71057;BME280;58380;48.312;9.246;2023-02-28T20:47:01;94061.09;;;-4.70;88.91
71057;BME280;58380;48.312;9.246;2023-02-28T20:49:26;94078.22;;;-4.53;88.85
71057;BME280;58380;48.312;9.246;2023-02-28T20:51:51;94085.66;;;-4.50;88.93
71057;BME280;58380;48.312;9.246;2023-02-28T20:54:17;94037.69;;;-4.85;88.97
71057;BME280;58380;48.312;9.246;2023-02-28T20:56:42;94038.69;;;-4.78;89.00
71057;BME280;58380;48.312;9.246;2023-02-28T20:59:11;94065.13;;;-4.68;89.04
71057;BME280;58380;48.312;9.246;2023-02-28T21:01:37;94088.50;;;-4.61;89.31
71057;BME280;58380;48.312;9.246;2023-02-28T21:04:05;94078.88;;;-4.59;89.67
71057;BME280;58380;48.312;9.246;2023-02-28T21:06:35;94082.06;;;-4.57;89.65
71057;BME280;58380;48.312;9.246;2023-02-28T21:09:07;94091.38;;;-4.64;89.19
71057;BME280;58380;48.312;9.246;2023-02-28T21:11:36;94065.75;;;-4.74;89.14
71057;BME280;58380;48.312;9.246;2023-02-28T21:14:12;94074.28;;;-4.73;89.81
71057;BME280;58380;48.312;9.246;2023-02-28T21:16:39;94066.00;;;-4.85;89.86
71057;BME280;58380;48.312;9.246;2023-02-28T21:19:05;94038.56;;;-5.03;89.96
71057;BME280;58380;48.312;9.246;2023-02-28T21:21:33;94076.00;;;-4.82;90.09
71057;BME280;58380;48.312;9.246;2023-02-28T21:24:03;94064.06;;;-4.91;90.18
71057;BME280;58380;48.312;9.246;2023-02-28T21:26:30;94060.81;;;-4.93;90.42
71057;BME280;58380;48.312;9.246;2023-02-28T21:29:00;94079.69;;;-4.85;90.70
71057;BME280;58380;48.312;9.246;2023-02-28T21:31:29;94075.19;;;-4.83;90.59
71057;BME280;58380;48.312;9.246;2023-02-28T21:33:59;94071.59;;;-4.90;90.72
71057;BME280;58380;48.312;9.246;2023-02-28T21:36:28;94088.53;;;-4.87;91.08
71057;BME280;58380;48.312;9.246;2023-02-28T21:38:58;94077.38;;;-4.96;91.06
71057;BME280;58380;48.312;9.246;2023-02-28T21:41:26;94087.25;;;-4.83;90.94
71057;BME280;58380;48.312;9.246;2023-02-28T21:43:54;94053.19;;;-5.03;90.62
71057;BME280;58380;48.312;9.246;2023-02-28T21:46:23;94045.78;;;-5.06;91.21
71057;BME280;58380;48.312;9.246;2023-02-28T21:48:50;94011.53;;;-5.33;90.98
71057;BME280;58380;48.312;9.246;2023-02-28T21:51:22;94073.03;;;-4.95;91.02
71057;BME280;58380;48.312;9.246;2023-02-28T21:53:49;94068.53;;;-4.93;91.53
71057;BME280;58380;48.312;9.246;2023-02-28T21:56:21;94027.41;;;-5.11;91.86
71057;BME280;58380;48.312;9.246;2023-02-28T21:58:48;94070.84;;;-4.82;91.11
71057;BME280;58380;48.312;9.246;2023-02-28T22:01:18;94069.56;;;-4.86;90.95
71057;BME280;58380;48.312;9.246;2023-02-28T22:03:45;94076.75;;;-4.90;91.50
71057;BME280;58380;48.312;9.246;2023-02-28T22:06:17;94065.63;;;-4.99;91.23
71057;BME280;58380;48.312;9.246;2023-02-28T22:08:47;94076.06;;;-5.00;91.18
71057;BME280;58380;48.312;9.246;2023-02-28T22:11:16;94071.22;;;-5.03;91.49
71057;BME280;58380;48.312;9.246;2023-02-28T22:13:42;94076.59;;;-5.14;91.42
71057;BME280;58380;48.312;9.246;2023-02-28T22:16:14;94075.22;;;-5.27;93.10
71057;BME280;58380;48.312;9.246;2023-02-28T22:18:42;94082.59;;;-5.14;93.28
71057;BME280;58380;48.312;9.246;2023-02-28T22:21:11;94072.56;;;-5.17;92.19
71057;BME280;58380;48.312;9.246;2023-02-28T22:23:39;94058.16;;;-5.36;92.58
71057;BME280;58380;48.312;9.246;2023-02-28T22:26:09;94060.91;;;-5.29;93.29
71057;BME280;58380;48.312;9.246;2023-02-28T22:28:36;94019.13;;;-5.49;93.31
71057;BME280;58380;48.312;9.246;2023-02-28T22:31:15;94018.69;;;-5.45;92.63
71057;BME280;58380;48.312;9.246;2023-02-28T22:33:44;93952.78;;;-5.98;92.71
71057;BME280;58380;48.312;9.246;2023-02-28T22:36:15;94064.50;;;-5.22;94.52
71057;BME280;58380;48.312;9.246;2023-02-28T22:38:42;94046.47;;;-5.22;93.45